Smithville, Missouri
Current Conditions -  °F | °C
As of 6:53 PM on Wednesday 22 Oct 2014 (Local Time) from KMCI Reporting Station
Scattered Clouds Scattered Clouds  
Wind Chill: 64°   Ceiling: Unl
Heat Index: 64°   Visibility: 10mi
Dew Point: 55°   Wind: 10mph
Humidity: 72%   Direction: 130°SE
Pressure: 30.1"   Gusts: NA
Location:  39.39°N, 94.58°W
Report Text: KMCI 222353Z 13009KT 10SM FEW150 SCT200 18/13 A3010 RMK AO2 SLP188 T01780128 10222 20172 53001
Loading
Personal Weather Stations






























Interactive Weather Map
Tropical Storm Tracking
New forecast layout! Learn more

10-Day Weather Forecast

Advertisements
Track Severe Weather on mobile